createdAt,value
2023-03-23T15:58:36.483Z,8.80
2023-03-23T16:01:13.051Z,6.50
2023-03-23T16:03:47.040Z,10.00
2023-03-23T16:06:25.324Z,8.60
2023-03-23T16:08:57.007Z,7.10
2023-03-23T16:11:28.753Z,7.80
2023-03-23T16:13:59.595Z,8.90
2023-03-23T16:16:33.794Z,12.70
2023-03-23T16:19:07.506Z,10.70
2023-03-23T16:21:38.750Z,7.60
2023-03-23T16:24:10.055Z,6.60
2023-03-23T16:26:41.762Z,7.20
2023-03-23T16:29:20.510Z,7.90
2023-03-23T16:31:55.306Z,9.40
2023-03-23T16:34:29.323Z,7.80
2023-03-23T16:37:00.637Z,8.00
2023-03-23T16:39:31.336Z,8.80
2023-03-23T16:42:02.439Z,9.20
2023-03-23T16:44:32.994Z,8.50
2023-03-23T16:47:03.810Z,11.40
2023-03-23T16:49:34.940Z,9.30
2023-03-23T16:52:05.997Z,14.30
2023-03-23T16:54:37.543Z,12.50
2023-03-23T16:57:08.914Z,9.80
2023-03-23T16:59:40.138Z,9.30
2023-03-23T17:02:12.082Z,13.80
2023-03-23T17:04:45.973Z,9.40
2023-03-23T17:07:16.623Z,9.90
2023-03-23T17:09:48.426Z,8.90
2023-03-23T17:12:18.992Z,9.30
2023-03-23T17:14:49.961Z,9.80
2023-03-23T17:17:20.723Z,9.30
2023-03-23T17:19:52.190Z,10.60
2023-03-23T17:22:22.903Z,12.70
2023-03-23T17:24:53.866Z,9.20
2023-03-23T17:27:25.151Z,10.50
2023-03-23T17:29:56.808Z,13.20
2023-03-23T17:32:27.951Z,10.40
2023-03-23T17:34:59.784Z,13.60
2023-03-23T17:37:30.772Z,10.80
2023-03-23T17:40:01.894Z,12.60
2023-03-23T17:42:32.830Z,12.00
2023-03-23T17:45:03.981Z,12.60
2023-03-23T17:47:35.373Z,12.00
2023-03-23T17:50:11.433Z,12.80
2023-03-23T17:52:43.965Z,13.70
2023-03-23T17:55:16.539Z,14.30
2023-03-23T17:57:47.349Z,16.40
2023-03-23T18:00:19.667Z,15.10
2023-03-23T18:02:50.521Z,17.80
2023-03-23T18:05:22.033Z,15.40
2023-03-23T18:07:53.114Z,14.50
2023-03-23T18:10:24.718Z,14.00
2023-03-23T18:12:55.672Z,17.30
2023-03-23T18:15:28.396Z,15.60
2023-03-23T18:18:00.057Z,13.40
2023-03-23T18:20:32.037Z,14.30
2023-03-23T18:23:04.949Z,17.30
2023-03-23T18:25:36.088Z,14.50
2023-03-23T18:28:07.869Z,19.40
2023-03-23T18:30:40.210Z,16.70
2023-03-23T18:33:11.146Z,20.00
2023-03-23T18:35:42.676Z,17.60
2023-03-23T18:38:14.351Z,17.10
2023-03-23T18:40:45.843Z,20.40
2023-03-23T18:43:16.661Z,20.20
2023-03-23T18:45:51.808Z,21.20
2023-03-23T18:48:22.933Z,16.70
2023-03-23T18:50:55.228Z,18.70
2023-03-23T18:53:26.657Z,21.10
2023-03-23T18:56:04.805Z,18.40
2023-03-23T18:58:35.396Z,17.80
2023-03-23T19:01:07.899Z,16.30
2023-03-23T19:03:41.041Z,15.90
2023-03-23T19:06:15.604Z,19.30
2023-03-23T19:08:47.167Z,18.80
2023-03-23T19:11:18.578Z,19.70
2023-03-23T19:14:00.624Z,29.40
2023-03-23T19:16:36.266Z,17.90
2023-03-23T19:19:09.135Z,17.70
2023-03-23T19:21:41.139Z,19.90
2023-03-23T19:24:12.523Z,17.80
2023-03-23T19:26:44.788Z,19.30
2023-03-23T19:31:51.062Z,20.40
2023-03-23T19:34:22.317Z,21.60
2023-03-23T19:36:56.391Z,24.20
2023-03-23T19:39:36.922Z,25.30
2023-03-23T19:42:08.558Z,23.20
2023-03-23T19:44:39.261Z,20.70
2023-03-23T19:55:19.397Z,20.70
2023-03-23T19:57:50.897Z,24.50
2023-03-23T20:00:24.399Z,20.90
2023-03-23T20:02:56.037Z,20.80
2023-03-23T20:05:27.346Z,19.10
2023-03-23T20:07:58.372Z,20.80
2023-03-23T20:10:30.046Z,18.50
2023-03-23T20:13:01.474Z,20.80
2023-03-23T20:15:32.920Z,21.50
2023-03-23T20:18:04.839Z,21.60
2023-03-23T20:20:37.976Z,21.90
2023-03-23T20:23:08.969Z,20.80
2023-03-23T20:25:40.054Z,25.10
2023-03-23T20:28:11.088Z,22.60
2023-03-23T20:30:42.923Z,23.10
2023-03-23T20:33:14.518Z,24.80
2023-03-23T20:35:45.841Z,30.70
2023-03-23T20:38:18.735Z,24.60
2023-03-23T20:40:49.569Z,26.50
2023-03-23T20:43:20.708Z,25.80
2023-03-23T20:45:51.908Z,23.70
2023-03-23T20:48:22.787Z,24.30
2023-03-23T20:50:54.076Z,22.50
2023-03-23T20:53:25.828Z,22.60
2023-03-23T20:55:57.717Z,24.00
2023-03-23T20:58:29.550Z,20.70
2023-03-23T21:01:01.600Z,22.70
2023-03-23T21:03:34.674Z,21.00
2023-03-23T21:06:07.762Z,22.10
2023-03-23T21:11:09.374Z,19.80
2023-03-23T21:13:40.360Z,20.30
2023-03-23T21:16:11.637Z,20.60
2023-03-23T21:18:42.864Z,21.10
2023-03-23T21:21:15.221Z,19.40
2023-03-23T21:23:52.194Z,19.90
2023-03-23T21:26:24.381Z,21.70
2023-03-23T21:29:00.310Z,23.60
2023-03-23T21:31:33.445Z,18.00
2023-03-23T21:34:04.502Z,19.70
2023-03-23T21:36:35.849Z,24.50
2023-03-23T21:39:07.264Z,20.70
2023-03-23T21:41:41.943Z,19.10
2023-03-23T21:44:13.629Z,22.70
2023-03-23T21:46:44.558Z,21.50
2023-03-23T21:49:15.683Z,21.60
2023-03-23T21:51:49.157Z,24.50
2023-03-23T21:54:21.485Z,22.40
2023-03-23T21:56:52.579Z,18.70
2023-03-23T21:59:23.547Z,22.70
2023-03-23T22:01:55.972Z,24.30
2023-03-23T22:04:28.251Z,22.70
2023-03-23T22:06:59.853Z,19.90
2023-03-23T22:09:31.397Z,21.30
2023-03-23T22:12:02.846Z,22.30
2023-03-23T22:14:34.078Z,19.50
2023-03-23T22:17:05.526Z,21.70
2023-03-23T22:19:36.990Z,20.90
2023-03-23T22:22:09.567Z,22.90
2023-03-23T22:24:40.221Z,19.80
2023-03-23T22:27:11.954Z,16.70
2023-03-23T22:29:42.836Z,19.30
2023-03-23T22:32:13.819Z,19.90
2023-03-23T22:34:45.283Z,19.30
2023-03-23T22:37:16.758Z,21.30
2023-03-23T22:39:47.990Z,20.50
2023-03-23T22:42:19.132Z,17.60
2023-03-23T22:44:49.962Z,21.80
2023-03-23T22:47:21.199Z,17.60
2023-03-23T22:49:52.176Z,17.30
2023-03-23T22:52:22.977Z,15.80
2023-03-23T22:54:54.063Z,17.20
2023-03-23T22:57:27.749Z,18.30
2023-03-23T22:59:58.725Z,19.10
2023-03-23T23:02:29.875Z,18.40
2023-03-23T23:05:00.861Z,19.50
2023-03-23T23:07:31.497Z,19.00
2023-03-23T23:10:02.621Z,14.40
2023-03-23T23:12:35.323Z,18.10
2023-03-23T23:15:07.404Z,15.50
2023-03-23T23:17:39.185Z,17.20
2023-03-23T23:20:13.081Z,19.60
2023-03-23T23:22:44.923Z,19.90
2023-03-23T23:25:16.144Z,16.90
2023-03-23T23:27:46.973Z,18.80
2023-03-23T23:30:18.116Z,16.30
2023-03-23T23:32:52.268Z,17.60
2023-03-23T23:35:23.103Z,17.50
2023-03-23T23:37:53.899Z,17.10
2023-03-23T23:40:24.735Z,18.90
2023-03-23T23:42:55.476Z,15.70
2023-03-23T23:45:26.714Z,18.10
2023-03-23T23:47:57.997Z,16.10
2023-03-23T23:50:29.002Z,18.90
2023-03-23T23:53:00.396Z,17.80
2023-03-23T23:55:31.605Z,18.30
2023-03-23T23:58:02.242Z,19.20
